createdAt,value
2017-10-29T00:02:28.709Z,95.60
2017-10-29T00:05:30.612Z,95.70
2017-10-29T00:08:33.394Z,95.50
2017-10-29T00:11:35.381Z,95.50
2017-10-29T00:14:37.818Z,94.50
2017-10-29T00:17:39.768Z,94.50
2017-10-29T00:20:42.881Z,95.40
2017-10-29T00:23:45.666Z,95.80
2017-10-29T00:26:49.473Z,96.00
2017-10-29T00:29:51.454Z,96.00
2017-10-29T00:32:53.509Z,95.80
2017-10-29T00:35:55.422Z,95.40
2017-10-29T00:38:57.483Z,95.20
2017-10-29T00:41:59.486Z,95.20
2017-10-29T00:45:01.437Z,95.30
2017-10-29T00:48:03.356Z,94.80
2017-10-29T00:51:05.643Z,94.80
2017-10-29T00:54:07.713Z,94.80
2017-10-29T00:57:09.688Z,94.70
2017-10-29T01:00:11.613Z,93.90
2017-10-29T01:03:14.011Z,93.70
2017-10-29T01:06:15.912Z,93.50
2017-10-29T01:09:18.965Z,92.80
2017-10-29T01:12:20.962Z,92.80
2017-10-29T01:15:22.962Z,92.90
2017-10-29T01:18:24.861Z,92.80
2017-10-29T01:21:27.584Z,94.00
2017-10-29T01:24:29.517Z,94.00
2017-10-29T01:27:31.554Z,93.80
2017-10-29T01:30:33.465Z,93.70
2017-10-29T01:33:35.409Z,93.80
2017-10-29T01:36:37.323Z,93.90
2017-10-29T01:39:39.633Z,94.10
2017-10-29T01:42:41.659Z,94.30
2017-10-29T01:45:43.596Z,94.60
2017-10-29T01:48:45.650Z,94.60
2017-10-29T01:51:47.693Z,94.60
2017-10-29T01:54:50.350Z,94.90
2017-10-29T01:57:52.597Z,94.80
2017-10-29T02:00:54.493Z,94.90
2017-10-29T02:03:56.936Z,94.90
2017-10-29T02:06:58.895Z,94.50
2017-10-29T02:10:00.827Z,93.90
2017-10-29T02:13:03.513Z,92.90
2017-10-29T02:16:06.225Z,92.80
2017-10-29T02:19:08.908Z,92.60
2017-10-29T02:22:12.707Z,92.80
2017-10-29T02:25:14.711Z,92.70
2017-10-29T02:28:16.674Z,92.40
2017-10-29T02:31:18.569Z,92.60
2017-10-29T02:34:20.494Z,93.20
2017-10-29T02:37:22.409Z,92.70
2017-10-29T02:40:24.367Z,91.90
2017-10-29T02:43:26.257Z,90.10
2017-10-29T02:46:28.294Z,89.70
2017-10-29T02:49:30.270Z,89.40
2017-10-29T02:52:32.766Z,90.20
2017-10-29T02:55:34.725Z,90.20
2017-10-29T02:58:36.846Z,90.40
2017-10-29T03:01:38.794Z,90.90
2017-10-29T03:04:40.778Z,90.70
2017-10-29T03:07:42.671Z,90.40
2017-10-29T03:10:44.674Z,90.30
2017-10-29T03:13:46.654Z,89.40
2017-10-29T03:16:48.635Z,90.00
2017-10-29T03:19:50.619Z,90.10
2017-10-29T03:22:52.906Z,90.00
2017-10-29T03:25:54.889Z,89.80
2017-10-29T03:28:56.850Z,88.70
2017-10-29T03:31:58.738Z,89.10
2017-10-29T03:35:00.742Z,89.30
2017-10-29T03:38:03.535Z,86.30
2017-10-29T03:41:06.351Z,84.90
2017-10-29T03:44:09.045Z,83.50
2017-10-29T03:47:11.331Z,83.20
2017-10-29T03:50:13.225Z,83.70
2017-10-29T03:53:15.955Z,83.50
2017-10-29T03:56:17.889Z,83.50
2017-10-29T03:59:20.262Z,82.90
2017-10-29T04:02:22.247Z,81.50
2017-10-29T04:05:24.546Z,82.00
2017-10-29T04:08:26.549Z,81.70
2017-10-29T04:11:29.265Z,78.70
2017-10-29T04:14:31.963Z,77.20
2017-10-29T04:17:35.030Z,76.50
2017-10-29T04:20:37.029Z,76.40
2017-10-29T04:23:39.009Z,77.20
2017-10-29T04:26:40.923Z,77.60
2017-10-29T04:29:44.016Z,77.30
2017-10-29T04:32:46.045Z,77.30
2017-10-29T04:35:47.958Z,77.30
2017-10-29T04:38:49.974Z,77.10
2017-10-29T04:41:52.752Z,71.10
2017-10-29T04:44:54.657Z,71.10
2017-10-29T04:47:56.927Z,71.40
2017-10-29T04:50:58.906Z,70.60
2017-10-29T04:54:00.914Z,70.70
2017-10-29T04:57:03.708Z,71.00
2017-10-29T05:00:05.874Z,70.80
2017-10-29T05:03:07.796Z,70.50
2017-10-29T05:06:10.496Z,71.90
2017-10-29T05:09:13.258Z,72.00
2017-10-29T05:12:16.052Z,72.30
2017-10-29T05:15:18.066Z,72.30
2017-10-29T05:18:20.022Z,72.60
2017-10-29T05:21:22.050Z,73.50
2017-10-29T05:24:24.761Z,74.20
2017-10-29T05:27:26.653Z,74.20
2017-10-29T05:30:28.693Z,74.80
2017-10-29T05:33:30.600Z,75.30
2017-10-29T05:36:33.407Z,80.20
2017-10-29T05:39:35.306Z,80.20
2017-10-29T05:42:37.349Z,79.40
2017-10-29T05:45:40.161Z,79.20
2017-10-29T05:48:42.890Z,80.00
2017-10-29T05:51:44.806Z,80.00
2017-10-29T05:54:47.124Z,80.00
2017-10-29T05:57:49.043Z,80.00
2017-10-29T06:00:51.390Z,79.20
2017-10-29T06:03:54.230Z,78.70
2017-10-29T06:06:56.146Z,77.80
2017-10-29T06:09:58.061Z,77.50
2017-10-29T06:13:00.308Z,77.80
2017-10-29T06:16:02.299Z,78.80
2017-10-29T06:19:04.595Z,78.00
2017-10-29T06:22:06.609Z,79.00
2017-10-29T06:25:08.904Z,79.70
2017-10-29T06:28:11.741Z,78.00
2017-10-29T06:31:13.771Z,78.00
2017-10-29T06:34:15.710Z,77.30
2017-10-29T06:37:18.059Z,76.30
2017-10-29T06:40:19.951Z,74.40
2017-10-29T06:43:22.735Z,73.30
2017-10-29T06:46:24.718Z,73.30
2017-10-29T06:49:26.698Z,72.70
2017-10-29T06:52:29.812Z,71.00
2017-10-29T06:55:32.178Z,71.40
2017-10-29T06:58:34.765Z,70.10
2017-10-29T07:01:36.678Z,68.90
2017-10-29T07:04:38.875Z,70.00
2017-10-29T07:07:41.167Z,70.20
2017-10-29T07:10:44.030Z,69.80
2017-10-29T07:13:45.947Z,69.60
2017-10-29T07:16:48.625Z,69.40
2017-10-29T07:19:50.565Z,69.40
2017-10-29T07:22:52.489Z,69.60
2017-10-29T07:25:54.434Z,69.70
2017-10-29T07:28:56.375Z,69.30
2017-10-29T07:31:59.858Z,71.80
2017-10-29T07:35:01.755Z,74.50
2017-10-29T07:38:03.770Z,75.10
2017-10-29T07:41:06.465Z,75.10
2017-10-29T07:44:09.260Z,74.40
2017-10-29T07:47:11.162Z,74.30
2017-10-29T07:50:13.867Z,73.30
2017-10-29T07:53:15.790Z,73.30
2017-10-29T07:56:17.746Z,72.00
2017-10-29T07:59:19.635Z,72.20
2017-10-29T08:02:21.561Z,71.50
2017-10-29T08:05:23.484Z,66.40
2017-10-29T08:08:25.415Z,60.70
2017-10-29T08:11:27.345Z,58.50
2017-10-29T08:14:29.397Z,57.40
2017-10-29T08:17:31.301Z,55.40
2017-10-29T08:20:33.989Z,52.00
2017-10-29T08:23:36.681Z,51.40
2017-10-29T08:26:39.169Z,51.30
2017-10-29T08:29:41.126Z,52.40
2017-10-29T08:32:43.065Z,55.80
2017-10-29T08:35:45.819Z,59.00
2017-10-29T08:38:47.933Z,60.30
2017-10-29T08:41:50.732Z,55.00
2017-10-29T08:44:53.522Z,52.70
2017-10-29T08:47:55.486Z,52.70
2017-10-29T08:50:57.450Z,53.60
2017-10-29T08:54:00.407Z,52.30
2017-10-29T08:57:03.093Z,50.40
2017-10-29T09:00:05.078Z,50.30
2017-10-29T09:03:07.814Z,50.40
2017-10-29T09:06:10.667Z,50.20
2017-10-29T09:09:12.593Z,51.30
2017-10-29T09:12:14.550Z,53.50
2017-10-29T09:15:16.530Z,56.30
2017-10-29T09:18:18.526Z,56.70
2017-10-29T09:21:21.298Z,52.90
2017-10-29T09:24:23.306Z,52.80
2017-10-29T09:27:26.136Z,49.80
2017-10-29T09:30:28.062Z,49.80
2017-10-29T09:33:29.985Z,51.40
2017-10-29T09:36:32.784Z,53.70
2017-10-29T09:39:35.503Z,52.00
2017-10-29T09:42:37.426Z,52.00
2017-10-29T09:45:39.414Z,48.10
2017-10-29T09:48:41.322Z,45.00
2017-10-29T09:51:45.238Z,38.80
2017-10-29T09:54:47.212Z,38.80
2017-10-29T09:57:49.523Z,36.70
2017-10-29T10:00:51.477Z,36.10
2017-10-29T10:03:53.776Z,35.00
2017-10-29T10:06:55.815Z,35.20
2017-10-29T10:09:57.810Z,37.60
2017-10-29T10:12:59.711Z,38.00
2017-10-29T10:16:02.249Z,36.90
2017-10-29T10:19:05.033Z,34.00
2017-10-29T10:22:07.106Z,33.90
2017-10-29T10:25:09.110Z,35.80
2017-10-29T10:28:11.070Z,37.30
2017-10-29T10:31:13.084Z,37.50
2017-10-29T10:34:15.780Z,40.50
2017-10-29T10:37:17.687Z,39.90
2017-10-29T10:40:20.741Z,43.70
2017-10-29T10:43:22.745Z,43.60
2017-10-29T10:46:24.789Z,42.40
2017-10-29T10:49:26.709Z,38.10
2017-10-29T10:52:28.650Z,35.30
2017-10-29T10:55:30.578Z,33.50
2017-10-29T10:58:32.539Z,31.80
2017-10-29T11:01:35.653Z,31.60
2017-10-29T11:04:41.136Z,31.50
2017-10-29T11:07:43.125Z,31.80
2017-10-29T11:10:46.215Z,34.90
2017-10-29T11:13:48.152Z,34.80
2017-10-29T11:16:50.074Z,36.60
2017-10-29T11:19:52.164Z,37.20
2017-10-29T11:22:54.091Z,38.10
2017-10-29T11:25:56.040Z,38.80
2017-10-29T11:28:58.445Z,41.10
2017-10-29T11:32:01.121Z,41.50
2017-10-29T11:35:03.043Z,41.50
2017-10-29T11:38:04.996Z,38.10
2017-10-29T11:41:08.450Z,31.70
2017-10-29T11:44:10.425Z,31.70
2017-10-29T11:47:13.177Z,29.70
2017-10-29T11:50:15.186Z,29.60
2017-10-29T11:53:17.108Z,29.20
2017-10-29T11:56:19.023Z,28.20
2017-10-29T11:59:21.010Z,28.80
2017-10-29T12:02:22.989Z,29.00
2017-10-29T12:05:24.982Z,29.40
2017-10-29T12:08:27.808Z,33.30
2017-10-29T12:11:30.704Z,35.20
2017-10-29T12:14:32.684Z,34.80
2017-10-29T12:17:34.711Z,35.50
2017-10-29T12:20:36.649Z,38.30
2017-10-29T12:23:39.449Z,39.90
2017-10-29T12:26:41.374Z,39.90
2017-10-29T12:29:43.424Z,42.60
2017-10-29T12:32:46.137Z,49.70
2017-10-29T12:35:48.846Z,51.70
2017-10-29T12:38:50.803Z,51.70
2017-10-29T12:41:52.762Z,55.80
2017-10-29T12:44:54.656Z,59.20
2017-10-29T12:47:56.962Z,62.20
2017-10-29T12:50:59.675Z,66.20
2017-10-29T12:54:02.391Z,66.00
2017-10-29T12:57:04.332Z,65.90
2017-10-29T13:00:06.277Z,70.00
2017-10-29T13:03:08.310Z,72.80
2017-10-29T13:06:10.301Z,74.70
2017-10-29T13:09:13.078Z,75.70
2017-10-29T13:12:15.123Z,75.00
2017-10-29T13:15:17.058Z,74.00
2017-10-29T13:18:19.035Z,74.70
2017-10-29T13:21:21.001Z,74.80
2017-10-29T13:24:22.998Z,73.60
2017-10-29T13:27:25.012Z,73.00
2017-10-29T13:30:28.202Z,72.70
2017-10-29T13:33:30.158Z,72.70
2017-10-29T13:36:32.085Z,72.40
2017-10-29T13:39:34.868Z,73.70
2017-10-29T13:42:37.145Z,72.90
2017-10-29T13:45:39.122Z,72.80
2017-10-29T13:48:41.121Z,73.10
2017-10-29T13:51:43.021Z,70.90
2017-10-29T13:54:45.818Z,68.60
2017-10-29T13:57:48.485Z,67.60
2017-10-29T14:00:50.426Z,67.50
2017-10-29T14:03:52.339Z,65.30
2017-10-29T14:06:54.657Z,61.90
2017-10-29T14:09:56.639Z,63.10
2017-10-29T14:12:58.577Z,64.10
2017-10-29T14:16:00.583Z,66.10
2017-10-29T14:19:02.563Z,67.70
2017-10-29T14:22:04.568Z,68.50
2017-10-29T14:25:06.861Z,69.90
2017-10-29T14:28:08.809Z,69.40
2017-10-29T14:31:10.755Z,69.40
2017-10-29T14:34:12.717Z,70.20
2017-10-29T14:37:14.648Z,70.00
2017-10-29T14:40:16.575Z,68.60
2017-10-29T14:43:18.542Z,68.50
2017-10-29T14:46:20.487Z,68.10
2017-10-29T14:49:23.102Z,68.30
2017-10-29T14:52:25.107Z,68.00
2017-10-29T14:55:27.026Z,68.20
2017-10-29T14:58:29.810Z,66.60
2017-10-29T15:01:32.523Z,66.50
2017-10-29T15:04:35.316Z,65.70
2017-10-29T15:07:38.023Z,65.30
2017-10-29T15:10:40.714Z,66.20
2017-10-29T15:13:42.765Z,66.20
2017-10-29T15:16:44.715Z,66.60
2017-10-29T15:19:47.058Z,67.00
2017-10-29T15:22:48.959Z,66.70
2017-10-29T15:25:51.643Z,66.90
2017-10-29T15:28:53.537Z,66.20
2017-10-29T15:31:56.274Z,65.60
2017-10-29T15:34:58.302Z,65.60
2017-10-29T15:38:00.217Z,65.00
2017-10-29T15:41:02.879Z,65.60
2017-10-29T15:44:04.800Z,65.60
2017-10-29T15:47:07.544Z,65.60
2017-10-29T15:50:09.469Z,65.70
2017-10-29T15:53:12.151Z,68.30
2017-10-29T15:56:14.239Z,68.10
2017-10-29T15:59:16.229Z,70.10
2017-10-29T16:02:18.154Z,70.90
2017-10-29T16:05:20.604Z,70.90
2017-10-29T16:08:22.544Z,72.50
2017-10-29T16:11:24.543Z,73.00
2017-10-29T16:14:26.847Z,73.40
2017-10-29T16:17:28.812Z,73.70
2017-10-29T16:20:30.785Z,73.50
2017-10-29T16:23:32.783Z,74.10
2017-10-29T16:26:35.910Z,74.50
2017-10-29T16:29:38.113Z,75.00
2017-10-29T16:32:40.886Z,75.30
2017-10-29T16:35:42.894Z,75.30
2017-10-29T16:38:44.848Z,75.50
2017-10-29T16:41:46.847Z,75.00
2017-10-29T16:44:49.684Z,75.30
2017-10-29T16:47:52.454Z,75.20
2017-10-29T16:50:54.439Z,75.20
2017-10-29T16:53:56.334Z,75.30
2017-10-29T16:56:59.420Z,76.00
2017-10-29T17:00:01.339Z,76.00
2017-10-29T17:03:03.697Z,76.10
2017-10-29T17:06:05.591Z,75.90
2017-10-29T17:09:07.527Z,76.20
2017-10-29T17:12:09.545Z,76.30
2017-10-29T17:15:13.146Z,76.30
2017-10-29T17:18:15.140Z,76.30
2017-10-29T17:21:17.952Z,76.30
2017-10-29T17:24:19.969Z,76.50
2017-10-29T17:27:21.928Z,76.20
2017-10-29T17:30:23.947Z,75.80
2017-10-29T17:33:25.992Z,74.90
2017-10-29T17:36:27.976Z,74.90
2017-10-29T17:39:31.078Z,73.90
2017-10-29T17:42:33.095Z,74.00
2017-10-29T17:45:35.855Z,74.00
2017-10-29T17:48:37.777Z,74.00
2017-10-29T17:51:40.786Z,73.90
2017-10-29T17:54:42.688Z,73.90
2017-10-29T17:57:45.023Z,74.00
2017-10-29T18:00:46.943Z,74.00
2017-10-29T18:03:49.653Z,73.90
2017-10-29T18:06:51.578Z,73.90
2017-10-29T18:09:53.592Z,73.70
2017-10-29T18:12:56.314Z,74.00
2017-10-29T18:15:58.256Z,74.10
2017-10-29T18:19:00.152Z,74.30
2017-10-29T18:22:02.678Z,74.50
2017-10-29T18:25:04.660Z,74.60
2017-10-29T18:28:06.595Z,74.40
2017-10-29T18:31:09.258Z,74.70
2017-10-29T18:34:11.290Z,74.80
2017-10-29T18:37:13.221Z,74.60
2017-10-29T18:40:15.134Z,74.50
2017-10-29T18:43:17.120Z,74.70
2017-10-29T18:46:19.312Z,74.70
2017-10-29T18:49:21.284Z,74.70
2017-10-29T18:52:23.304Z,74.70
2017-10-29T18:55:25.988Z,74.50
2017-10-29T18:58:27.964Z,74.30
2017-10-29T19:01:29.854Z,74.30
2017-10-29T19:04:31.769Z,74.20
2017-10-29T19:07:33.690Z,74.50
2017-10-29T19:10:35.735Z,74.70
2017-10-29T19:13:37.642Z,74.70
2017-10-29T19:16:39.644Z,74.80
2017-10-29T19:19:41.627Z,75.30
2017-10-29T19:22:43.927Z,75.80
2017-10-29T19:25:46.843Z,76.30
2017-10-29T19:28:48.829Z,76.70
2017-10-29T19:31:50.853Z,77.30
2017-10-29T19:34:53.805Z,77.70
2017-10-29T19:37:55.793Z,78.50
2017-10-29T19:40:58.119Z,78.90
2017-10-29T19:44:00.905Z,78.80
2017-10-29T19:47:02.818Z,78.80
2017-10-29T19:50:04.737Z,79.20
2017-10-29T19:53:06.704Z,78.90
2017-10-29T19:56:08.817Z,78.80
2017-10-29T19:59:11.039Z,79.20
2017-10-29T20:02:13.284Z,79.40
2017-10-29T20:05:15.438Z,79.70
2017-10-29T20:08:18.144Z,81.40
2017-10-29T20:11:20.834Z,81.20
2017-10-29T20:14:23.640Z,81.70
2017-10-29T20:17:26.330Z,82.40
2017-10-29T20:20:28.306Z,82.40
2017-10-29T20:23:30.294Z,83.80
2017-10-29T20:26:32.262Z,84.90
2017-10-29T20:29:34.579Z,85.70
2017-10-29T20:32:36.573Z,86.50
2017-10-29T20:35:39.184Z,86.80
2017-10-29T20:38:41.883Z,88.00
2017-10-29T20:41:45.328Z,87.30
2017-10-29T20:44:47.219Z,87.30
2017-10-29T20:47:49.172Z,87.40
2017-10-29T20:50:51.162Z,87.80
2017-10-29T20:53:54.237Z,87.90
2017-10-29T20:56:56.173Z,87.80
2017-10-29T20:59:58.967Z,87.70
2017-10-29T21:03:01.755Z,87.90
2017-10-29T21:06:03.740Z,87.90
2017-10-29T21:09:05.720Z,87.90
2017-10-29T21:12:07.673Z,87.70
2017-10-29T21:15:09.581Z,87.30
2017-10-29T21:18:11.499Z,87.00
2017-10-29T21:21:14.256Z,87.20
2017-10-29T21:24:16.219Z,87.20
2017-10-29T21:27:18.244Z,87.50
2017-10-29T21:30:20.946Z,89.00
2017-10-29T21:33:23.674Z,88.40
2017-10-29T21:36:26.034Z,88.50
2017-10-29T21:39:28.020Z,88.60
2017-10-29T21:42:29.974Z,88.70
2017-10-29T21:45:31.923Z,88.80
2017-10-29T21:48:33.872Z,88.90
2017-10-29T21:51:35.795Z,88.50
2017-10-29T21:54:38.104Z,88.10
2017-10-29T21:57:40.187Z,88.20
2017-10-29T22:00:42.526Z,87.80
2017-10-29T22:03:44.449Z,87.80
2017-10-29T22:06:46.479Z,88.60
2017-10-29T22:09:48.429Z,87.70
2017-10-29T22:12:50.773Z,87.60
2017-10-29T22:15:53.542Z,88.20
2017-10-29T22:18:55.854Z,87.70
2017-10-29T22:21:57.838Z,88.50
2017-10-29T22:24:59.783Z,89.30
2017-10-29T22:28:01.672Z,90.00
2017-10-29T22:31:03.974Z,90.30
2017-10-29T22:34:05.890Z,90.50
2017-10-29T22:37:08.962Z,91.30
2017-10-29T22:40:10.856Z,91.00
2017-10-29T22:43:12.789Z,91.00
2017-10-29T22:46:14.711Z,91.10
2017-10-29T22:49:16.690Z,91.20
2017-10-29T22:52:18.783Z,91.20
2017-10-29T22:55:20.742Z,91.10
2017-10-29T22:58:22.753Z,90.90
2017-10-29T23:01:24.715Z,91.00
2017-10-29T23:04:26.842Z,91.10
2017-10-29T23:07:40.902Z,91.10
2017-10-29T23:10:42.898Z,91.10
2017-10-29T23:13:45.598Z,90.90
2017-10-29T23:16:48.369Z,90.80
2017-10-29T23:19:50.592Z,90.80
2017-10-29T23:22:53.386Z,90.40
2017-10-29T23:25:56.094Z,90.40
2017-10-29T23:28:58.985Z,90.30
2017-10-29T23:32:00.910Z,90.30
2017-10-29T23:35:02.819Z,90.40
2017-10-29T23:38:04.941Z,90.70
2017-10-29T23:41:06.915Z,91.00
2017-10-29T23:44:09.047Z,90.90
2017-10-29T23:47:11.103Z,91.00
2017-10-29T23:50:14.211Z,91.40
2017-10-29T23:53:17.012Z,91.70
2017-10-29T23:56:19.719Z,91.90
2017-10-29T23:59:22.393Z,92.10
